Aviation Digital Data Service (ADDS)

Output produced by METARs form (1940 UTC 25 October 2014)
found at http://www.aviationweather.gov/adds/metars/
 
KILG 251851Z 22007KT 10SM CLR 21/07 A2978 RMK AO2 SLP083 T02060072
KILG 251727Z 2518/2618 25008G16KT P6SM FEW040 
     FM252300 27010KT P6SM SCT050 
     FM261400 30017G27KT P6SM SCT050